createdAt,value
2019-05-30T00:00:51.479Z,99.90
2019-05-30T00:03:20.047Z,99.90
2019-05-30T00:05:48.714Z,99.90
2019-05-30T00:08:17.275Z,99.90
2019-05-30T00:10:45.943Z,99.90
2019-05-30T00:13:15.495Z,99.90
2019-05-30T00:15:44.251Z,99.90
2019-05-30T00:18:12.891Z,99.90
2019-05-30T00:20:41.558Z,99.90
2019-05-30T00:23:11.224Z,99.90
2019-05-30T00:25:39.991Z,99.90
2019-05-30T00:28:08.584Z,99.90
2019-05-30T00:30:37.255Z,99.90
2019-05-30T00:33:07.026Z,99.90
2019-05-30T00:35:35.695Z,99.90
2019-05-30T00:38:04.475Z,99.90
2019-05-30T00:40:33.099Z,99.90
2019-05-30T00:43:02.122Z,99.90
2019-05-30T00:45:30.785Z,99.90
2019-05-30T00:48:00.139Z,99.90
2019-05-30T00:50:28.823Z,99.90
2019-05-30T00:52:58.732Z,99.90
2019-05-30T00:55:27.434Z,99.90
2019-05-30T00:57:56.684Z,99.90
2019-05-30T01:00:41.935Z,99.90
2019-05-30T01:02:59.354Z,99.90
2019-05-30T01:05:27.251Z,99.90
2019-05-30T01:07:56.716Z,99.90
2019-05-30T01:10:25.589Z,99.90
2019-05-30T01:12:54.262Z,99.90
2019-05-30T01:15:22.973Z,99.90
2019-05-30T01:17:51.575Z,99.90
2019-05-30T01:20:20.594Z,99.90
2019-05-30T01:22:49.183Z,99.90
2019-05-30T01:25:17.983Z,99.90
2019-05-30T01:27:46.589Z,99.90
2019-05-30T01:30:16.059Z,99.90
2019-05-30T01:32:44.665Z,99.90
2019-05-30T01:35:13.485Z,99.90
2019-05-30T01:37:42.085Z,99.90
2019-05-30T01:40:12.138Z,99.90
2019-05-30T01:42:40.751Z,99.90
2019-05-30T01:45:10.076Z,99.90
2019-05-30T01:47:38.689Z,99.90
2019-05-30T01:50:08.753Z,99.90
2019-05-30T01:52:37.812Z,99.90
2019-05-30T01:55:10.157Z,99.90
2019-05-30T01:57:38.829Z,99.90
2019-05-30T02:00:20.254Z,99.90
2019-05-30T02:02:40.555Z,99.90
2019-05-30T02:05:09.667Z,99.90
2019-05-30T02:07:38.271Z,99.90
2019-05-30T02:10:10.112Z,99.90
2019-05-30T02:12:39.122Z,99.90
2019-05-30T02:15:08.332Z,99.90
2019-05-30T02:17:36.930Z,99.90
2019-05-30T02:20:06.235Z,99.90
2019-05-30T02:22:34.894Z,99.90
2019-05-30T02:25:05.981Z,99.90
2019-05-30T02:27:34.756Z,99.90
2019-05-30T02:30:08.075Z,99.90
2019-05-30T02:32:34.884Z,99.90
2019-05-30T02:35:05.135Z,99.90
2019-05-30T02:37:33.999Z,99.90
2019-05-30T02:40:05.304Z,99.90
2019-05-30T02:42:33.066Z,99.90
2019-05-30T02:45:03.420Z,99.90
2019-05-30T02:47:31.946Z,99.90
2019-05-30T02:50:01.487Z,99.90
2019-05-30T02:52:30.834Z,99.90
2019-05-30T02:54:59.392Z,99.90
2019-05-30T02:57:27.999Z,99.90
2019-05-30T02:59:56.561Z,99.90
2019-05-30T03:02:25.128Z,99.90
2019-05-30T03:04:53.724Z,99.90
2019-05-30T03:07:22.441Z,99.90
2019-05-30T03:09:51.104Z,99.90
2019-05-30T03:12:20.325Z,99.90
2019-05-30T03:14:49.532Z,99.90
2019-05-30T03:17:18.310Z,99.90
2019-05-30T03:19:46.957Z,99.90
2019-05-30T03:22:15.759Z,99.90
2019-05-30T03:24:44.420Z,99.90
2019-05-30T03:27:14.206Z,99.90
2019-05-30T03:29:43.159Z,99.90
2019-05-30T03:32:51.641Z,99.90
2019-05-30T03:34:43.034Z,99.90
2019-05-30T03:37:22.616Z,99.90
2019-05-30T03:39:42.049Z,99.90
2019-05-30T03:42:11.800Z,99.90
2019-05-30T03:44:41.079Z,99.90
2019-05-30T03:47:13.774Z,99.90
2019-05-30T03:49:45.443Z,99.90
2019-05-30T03:52:17.404Z,99.90
2019-05-30T03:54:47.897Z,99.90
2019-05-30T03:57:19.698Z,99.90
2019-05-30T04:00:03.343Z,99.90
2019-05-30T04:02:55.455Z,99.90
2019-05-30T04:05:12.021Z,99.90
2019-05-30T04:07:47.156Z,99.90
2019-05-30T04:10:17.256Z,99.90
2019-05-30T04:12:55.025Z,99.90
2019-05-30T04:15:34.229Z,99.90
2019-05-30T04:18:02.948Z,99.90
2019-05-30T04:20:32.283Z,99.90
2019-05-30T04:23:00.846Z,99.90
2019-05-30T04:25:29.508Z,99.90
2019-05-30T04:27:58.212Z,99.90
2019-05-30T04:30:26.954Z,99.90
2019-05-30T04:33:15.718Z,99.90
2019-05-30T04:35:25.824Z,99.90
2019-05-30T04:37:54.400Z,99.90
2019-05-30T04:40:23.755Z,99.90
2019-05-30T04:42:52.473Z,99.90
2019-05-30T04:45:21.262Z,99.90
2019-05-30T04:47:49.959Z,99.90
2019-05-30T04:50:20.546Z,99.90
2019-05-30T04:52:49.202Z,99.90
2019-05-30T04:55:20.306Z,99.90
2019-05-30T04:57:48.235Z,99.90
2019-05-30T05:00:19.316Z,99.90
2019-05-30T05:02:47.996Z,99.90
2019-05-30T05:05:22.625Z,99.90
2019-05-30T05:07:46.939Z,99.90
2019-05-30T05:10:16.191Z,99.90
2019-05-30T05:12:44.838Z,99.90
2019-05-30T05:15:14.329Z,99.90
2019-05-30T05:17:42.942Z,99.90
2019-05-30T05:20:12.996Z,99.90
2019-05-30T05:22:41.757Z,99.90
2019-05-30T05:25:10.951Z,99.90
2019-05-30T05:27:39.529Z,99.90
2019-05-30T05:30:09.779Z,99.90
2019-05-30T05:32:38.409Z,99.90
2019-05-30T05:35:07.857Z,99.90
2019-05-30T05:37:36.434Z,99.90
2019-05-30T05:40:06.564Z,99.90
2019-05-30T05:42:35.187Z,99.90
2019-05-30T05:45:06.495Z,99.90
2019-05-30T05:47:35.099Z,99.90
2019-05-30T05:50:04.631Z,99.90
2019-05-30T05:52:33.236Z,99.90
2019-05-30T05:55:01.949Z,99.90
2019-05-30T05:57:30.553Z,99.90
2019-05-30T05:59:59.130Z,99.90
2019-05-30T06:02:27.791Z,99.90
2019-05-30T06:04:56.363Z,99.90
2019-05-30T06:07:28.593Z,99.90
2019-05-30T06:09:57.313Z,99.90
2019-05-30T06:12:26.369Z,99.90
2019-05-30T06:14:55.213Z,99.90
2019-05-30T06:17:25.057Z,99.90
2019-05-30T06:19:53.763Z,99.90
2019-05-30T06:22:23.503Z,99.90
2019-05-30T06:24:52.216Z,99.90
2019-05-30T06:27:22.496Z,99.90
2019-05-30T06:30:03.471Z,99.90
2019-05-30T06:32:32.057Z,99.90
2019-05-30T06:35:00.699Z,99.90
2019-05-30T06:37:29.474Z,99.90
2019-05-30T06:39:58.213Z,99.90
2019-05-30T06:42:28.159Z,99.90
2019-05-30T06:44:56.879Z,99.90
2019-05-30T06:47:26.299Z,99.90
2019-05-30T06:49:55.072Z,99.90
2019-05-30T06:52:24.869Z,99.90
2019-05-30T06:54:53.551Z,99.90
2019-05-30T06:57:23.133Z,99.90
2019-05-30T06:59:51.738Z,99.90
2019-05-30T07:02:20.403Z,99.90
2019-05-30T07:04:51.984Z,99.90
2019-05-30T07:07:19.413Z,99.90
2019-05-30T07:09:48.419Z,99.90
2019-05-30T07:12:17.091Z,99.90
2019-05-30T07:14:45.659Z,99.90
2019-05-30T07:17:14.332Z,99.90
2019-05-30T07:19:43.040Z,99.90
2019-05-30T07:22:11.768Z,97.10
2019-05-30T07:24:40.548Z,93.30
2019-05-30T07:27:09.197Z,91.00
2019-05-30T07:29:37.779Z,85.80
2019-05-30T07:32:06.746Z,79.70
2019-05-30T07:34:35.411Z,72.30
2019-05-30T07:37:04.068Z,71.50
2019-05-30T07:39:35.083Z,65.90
2019-05-30T07:42:06.461Z,64.60
2019-05-30T07:44:33.591Z,61.00
2019-05-30T07:47:02.227Z,59.20
2019-05-30T07:49:30.823Z,60.30
2019-05-30T07:51:59.495Z,59.80
2019-05-30T07:54:28.856Z,58.10
2019-05-30T07:56:57.481Z,58.50
2019-05-30T07:59:26.407Z,59.40
2019-05-30T08:01:55.160Z,59.10
2019-05-30T08:04:23.729Z,59.50
2019-05-30T08:06:52.333Z,59.80
2019-05-30T08:09:20.924Z,56.70
2019-05-30T08:11:49.601Z,55.90
2019-05-30T08:14:18.228Z,53.10
2019-05-30T08:16:46.837Z,52.70
2019-05-30T08:19:15.488Z,53.40
2019-05-30T08:21:44.121Z,56.30
2019-05-30T08:24:12.698Z,54.50
2019-05-30T08:26:41.336Z,50.60
2019-05-30T08:29:09.991Z,48.20
2019-05-30T08:31:38.907Z,47.10
2019-05-30T08:34:07.620Z,50.80
2019-05-30T08:36:37.109Z,47.40
2019-05-30T08:39:07.551Z,47.90
2019-05-30T08:41:37.286Z,46.00
2019-05-30T08:44:06.143Z,45.80
2019-05-30T08:46:35.756Z,49.40
2019-05-30T08:49:04.537Z,47.30
2019-05-30T08:51:34.084Z,45.00
2019-05-30T08:54:02.784Z,44.70
2019-05-30T08:56:32.940Z,45.80
2019-05-30T08:59:01.589Z,45.30
2019-05-30T09:01:30.166Z,43.20
2019-05-30T09:03:58.749Z,46.50
2019-05-30T09:06:27.337Z,46.30
2019-05-30T09:08:56.021Z,45.60
2019-05-30T09:11:24.640Z,41.50
2019-05-30T09:13:53.349Z,44.30
2019-05-30T09:16:22.038Z,43.00
2019-05-30T09:18:50.711Z,45.60
2019-05-30T09:21:19.283Z,47.80
2019-05-30T09:23:48.218Z,47.00
2019-05-30T09:26:17.143Z,45.50
2019-05-30T09:28:46.257Z,45.10
2019-05-30T09:31:15.018Z,46.20
2019-05-30T09:33:44.679Z,45.00
2019-05-30T09:36:14.134Z,45.20
2019-05-30T09:38:43.548Z,46.00
2019-05-30T09:41:12.452Z,48.10
2019-05-30T09:43:42.932Z,48.60
2019-05-30T09:46:12.239Z,49.30
2019-05-30T09:48:43.078Z,51.00
2019-05-30T09:51:11.805Z,48.40
2019-05-30T09:53:42.372Z,47.10
2019-05-30T09:56:11.776Z,45.70
2019-05-30T09:58:42.291Z,47.60
2019-05-30T10:01:11.266Z,47.70
2019-05-30T10:03:43.631Z,50.50
2019-05-30T10:06:26.542Z,46.10
2019-05-30T10:08:45.913Z,45.60
2019-05-30T10:11:16.181Z,47.30
2019-05-30T10:13:46.390Z,45.70
2019-05-30T10:16:15.922Z,47.60
2019-05-30T10:18:46.062Z,45.70
2019-05-30T10:21:16.034Z,44.70
2019-05-30T10:23:46.181Z,44.30
2019-05-30T10:26:15.681Z,47.20
2019-05-30T10:28:45.004Z,45.80
2019-05-30T10:31:14.534Z,47.40
2019-05-30T10:33:44.308Z,49.20
2019-05-30T10:36:14.798Z,44.50
2019-05-30T10:38:43.589Z,44.30
2019-05-30T10:41:12.184Z,45.30
2019-05-30T10:43:40.745Z,46.30
2019-05-30T10:46:09.412Z,48.90
2019-05-30T10:48:38.055Z,46.00
2019-05-30T10:51:07.067Z,46.10
2019-05-30T10:53:37.538Z,44.90
2019-05-30T10:56:06.149Z,45.40
2019-05-30T10:58:34.792Z,47.60
2019-05-30T11:01:03.469Z,45.20
2019-05-30T11:03:33.175Z,43.10
2019-05-30T11:06:04.958Z,44.80
2019-05-30T11:08:36.124Z,44.70
2019-05-30T11:11:04.788Z,44.10
2019-05-30T11:13:33.428Z,44.20
2019-05-30T11:16:02.043Z,44.20
2019-05-30T11:18:30.603Z,41.90
2019-05-30T11:20:59.201Z,41.50
2019-05-30T11:23:27.767Z,41.80
2019-05-30T11:25:57.097Z,40.90
2019-05-30T11:28:25.681Z,39.00
2019-05-30T11:30:54.810Z,39.60
2019-05-30T11:33:23.440Z,37.90
2019-05-30T11:35:53.102Z,38.80
2019-05-30T11:38:21.714Z,37.30
2019-05-30T11:40:51.369Z,36.90
2019-05-30T11:43:20.196Z,38.60
2019-05-30T11:45:49.728Z,41.60
2019-05-30T11:48:18.432Z,40.90
2019-05-30T11:50:47.168Z,38.90
2019-05-30T11:53:15.813Z,39.60
2019-05-30T11:55:44.461Z,37.20
2019-05-30T11:58:13.032Z,39.10
2019-05-30T12:00:41.693Z,44.10
2019-05-30T12:03:10.342Z,42.90
2019-05-30T12:05:38.932Z,45.30
2019-05-30T12:08:07.505Z,39.80
2019-05-30T12:10:36.259Z,40.00
2019-05-30T12:13:05.168Z,40.00
2019-05-30T12:15:33.913Z,44.20
2019-05-30T12:18:02.589Z,44.80
2019-05-30T12:20:31.211Z,45.50
2019-05-30T12:23:00.008Z,45.70
2019-05-30T12:25:28.740Z,44.40
2019-05-30T12:27:58.195Z,40.70
2019-05-30T12:30:27.184Z,41.70
2019-05-30T12:32:56.420Z,42.50
2019-05-30T12:35:25.158Z,42.90
2019-05-30T12:37:58.791Z,44.80
2019-05-30T12:40:24.899Z,42.80
2019-05-30T12:42:56.376Z,45.90
2019-05-30T12:45:24.860Z,46.50
2019-05-30T12:47:53.438Z,44.10
2019-05-30T12:50:22.434Z,47.00
2019-05-30T12:52:51.110Z,43.20
2019-05-30T12:55:19.757Z,43.40
2019-05-30T12:57:48.357Z,45.50
2019-05-30T13:00:20.144Z,41.70
2019-05-30T13:02:48.872Z,42.50
2019-05-30T13:05:17.789Z,43.50
2019-05-30T13:07:46.401Z,43.50
2019-05-30T13:10:16.913Z,45.50
2019-05-30T13:12:45.570Z,48.20
2019-05-30T13:15:14.283Z,41.50
2019-05-30T13:17:42.957Z,43.50
2019-05-30T13:20:12.275Z,47.40
2019-05-30T13:22:40.952Z,43.80
2019-05-30T13:25:11.935Z,41.80
2019-05-30T13:27:40.597Z,41.00
2019-05-30T13:30:10.606Z,44.40
2019-05-30T13:32:39.283Z,46.50
2019-05-30T13:35:09.701Z,44.30
2019-05-30T13:37:38.433Z,46.60
2019-05-30T13:40:23.576Z,45.70
2019-05-30T13:42:38.924Z,45.00
2019-05-30T13:45:09.067Z,46.70
2019-05-30T13:47:38.080Z,49.80
2019-05-30T13:50:12.683Z,50.80
2019-05-30T13:52:38.208Z,48.90
2019-05-30T13:55:08.560Z,47.90
2019-05-30T13:57:38.064Z,48.10
2019-05-30T14:00:11.023Z,45.90
2019-05-30T14:02:39.769Z,48.70
2019-05-30T14:05:10.722Z,45.00
2019-05-30T14:07:39.584Z,45.70
2019-05-30T14:10:08.816Z,43.90
2019-05-30T14:12:37.483Z,45.70
2019-05-30T14:15:13.561Z,46.80
2019-05-30T14:17:40.287Z,42.30
2019-05-30T14:20:11.767Z,44.50
2019-05-30T14:22:40.514Z,46.10
2019-05-30T14:25:09.972Z,48.40
2019-05-30T14:27:39.265Z,43.60
2019-05-30T14:30:09.378Z,42.50
2019-05-30T14:32:37.986Z,42.10
2019-05-30T14:35:11.796Z,41.20
2019-05-30T14:37:40.276Z,45.10
2019-05-30T14:40:12.913Z,44.60
2019-05-30T14:42:41.984Z,43.20
2019-05-30T14:45:12.788Z,40.60
2019-05-30T14:47:41.438Z,40.80
2019-05-30T14:50:11.228Z,41.40
2019-05-30T14:52:39.913Z,42.90
2019-05-30T14:55:11.170Z,41.50
2019-05-30T14:57:40.019Z,42.60
2019-05-30T15:00:13.280Z,42.10
2019-05-30T15:02:43.079Z,42.20
2019-05-30T15:05:13.572Z,41.80
2019-05-30T15:07:42.610Z,45.00
2019-05-30T15:10:12.622Z,45.10
2019-05-30T15:12:41.581Z,41.90
2019-05-30T15:15:13.227Z,45.90
2019-05-30T15:17:41.055Z,45.60
2019-05-30T15:20:12.041Z,44.40
2019-05-30T15:22:40.595Z,44.30
2019-05-30T15:25:10.207Z,45.10
2019-05-30T15:27:39.076Z,43.70
2019-05-30T15:30:12.609Z,42.40
2019-05-30T15:32:41.475Z,44.80
2019-05-30T15:35:11.010Z,42.70
2019-05-30T15:37:40.934Z,43.50
2019-05-30T15:40:12.917Z,41.90
2019-05-30T15:42:41.772Z,41.90
2019-05-30T15:45:12.043Z,42.70
2019-05-30T15:47:40.818Z,41.10
2019-05-30T15:50:11.223Z,42.20
2019-05-30T15:52:40.494Z,42.50
2019-05-30T15:55:09.510Z,43.00
2019-05-30T15:57:38.126Z,42.30
2019-05-30T16:00:12.372Z,42.60
2019-05-30T16:02:41.332Z,43.70
2019-05-30T16:05:12.337Z,43.40
2019-05-30T16:07:41.151Z,43.60
2019-05-30T16:10:10.889Z,42.80
2019-05-30T16:12:39.802Z,41.30
2019-05-30T16:15:09.142Z,42.00
2019-05-30T16:17:37.773Z,42.70
2019-05-30T16:20:07.417Z,43.30
2019-05-30T16:22:36.076Z,42.00
2019-05-30T16:25:06.301Z,41.00
2019-05-30T16:27:34.937Z,41.90
2019-05-30T16:30:05.429Z,42.00
2019-05-30T16:32:33.998Z,42.00
2019-05-30T16:35:02.722Z,43.30
2019-05-30T16:37:31.285Z,43.40
2019-05-30T16:40:05.723Z,43.70
2019-05-30T16:42:30.156Z,43.90
2019-05-30T16:44:58.762Z,44.00
2019-05-30T16:47:27.347Z,44.50
2019-05-30T16:49:56.051Z,44.10
2019-05-30T16:52:24.713Z,44.40
2019-05-30T16:54:53.295Z,43.30
2019-05-30T16:57:22.705Z,43.30
2019-05-30T16:59:51.391Z,43.10
2019-05-30T17:02:20.849Z,43.20
2019-05-30T17:04:49.546Z,43.20
2019-05-30T17:07:19.094Z,43.70
2019-05-30T17:09:47.825Z,42.60
2019-05-30T17:12:17.429Z,43.00
2019-05-30T17:14:46.165Z,44.40
2019-05-30T17:17:16.128Z,45.20
2019-05-30T17:19:44.892Z,45.90
2019-05-30T17:22:13.466Z,47.10
2019-05-30T17:24:42.100Z,47.20
2019-05-30T17:27:10.771Z,47.60
2019-05-30T17:29:39.487Z,46.40
2019-05-30T17:32:08.052Z,47.10
2019-05-30T17:34:36.726Z,46.70
2019-05-30T17:37:05.360Z,47.60
2019-05-30T17:39:33.961Z,46.60
2019-05-30T17:42:02.609Z,46.00
2019-05-30T17:44:31.276Z,45.50
2019-05-30T17:46:59.959Z,46.30
2019-05-30T17:49:29.933Z,46.80
2019-05-30T17:51:58.589Z,47.10
2019-05-30T17:54:28.028Z,47.50
2019-05-30T17:56:56.736Z,47.60
2019-05-30T17:59:26.399Z,47.20
2019-05-30T18:01:55.151Z,48.00
2019-05-30T18:04:24.465Z,48.00
2019-05-30T18:06:53.119Z,48.20
2019-05-30T18:09:22.900Z,47.90
2019-05-30T18:11:52.438Z,48.20
2019-05-30T18:14:21.313Z,48.80
2019-05-30T18:16:49.914Z,49.00
2019-05-30T18:19:18.597Z,49.60
2019-05-30T18:21:47.398Z,49.90
2019-05-30T18:24:15.970Z,50.30
2019-05-30T18:26:44.773Z,50.20
2019-05-30T18:29:13.340Z,50.20
2019-05-30T18:31:41.937Z,50.30
2019-05-30T18:34:10.579Z,51.20
2019-05-30T18:36:39.173Z,50.50
2019-05-30T18:39:09.257Z,51.20
2019-05-30T18:41:37.849Z,52.00
2019-05-30T18:44:06.563Z,51.40
2019-05-30T18:46:38.423Z,51.70
2019-05-30T18:49:05.627Z,51.80
2019-05-30T18:51:34.229Z,52.20
2019-05-30T18:54:03.078Z,52.50
2019-05-30T18:56:34.064Z,52.60
2019-05-30T18:59:02.725Z,53.20
2019-05-30T19:01:31.764Z,53.50
2019-05-30T19:04:00.550Z,55.10
2019-05-30T19:06:29.939Z,55.70
2019-05-30T19:08:58.624Z,55.80
2019-05-30T19:11:32.735Z,56.00
2019-05-30T19:13:57.520Z,58.30
2019-05-30T19:16:26.382Z,59.30
2019-05-30T19:18:55.019Z,59.10
2019-05-30T19:21:23.653Z,61.00
2019-05-30T19:23:52.400Z,62.80
2019-05-30T19:26:21.140Z,65.00
2019-05-30T19:28:49.817Z,66.60
2019-05-30T19:31:18.403Z,69.40
2019-05-30T19:33:47.102Z,71.50
2019-05-30T19:36:15.694Z,73.30
2019-05-30T19:38:44.480Z,78.70
2019-05-30T19:41:13.072Z,79.00
2019-05-30T19:43:41.699Z,83.50
2019-05-30T19:46:13.174Z,86.70
2019-05-30T19:48:40.761Z,90.80
2019-05-30T19:51:09.373Z,93.40
2019-05-30T19:53:39.161Z,95.90
2019-05-30T19:56:07.876Z,98.40
2019-05-30T19:58:37.563Z,99.90
2019-05-30T20:01:06.418Z,99.90
2019-05-30T20:03:41.451Z,99.90
2019-05-30T20:06:05.417Z,99.90
2019-05-30T20:08:47.550Z,99.90
2019-05-30T20:11:04.307Z,99.90
2019-05-30T20:13:33.110Z,99.90
2019-05-30T20:16:01.916Z,99.90
2019-05-30T20:18:31.559Z,99.90
2019-05-30T20:21:00.279Z,99.90
2019-05-30T20:23:28.947Z,99.90
2019-05-30T20:25:57.674Z,99.90
2019-05-30T20:28:26.340Z,99.90
2019-05-30T20:30:55.017Z,99.90
2019-05-30T20:33:23.623Z,99.90
2019-05-30T20:35:52.330Z,99.90
2019-05-30T20:38:21.003Z,99.90
2019-05-30T20:40:49.564Z,99.90
2019-05-30T20:43:18.162Z,99.90
2019-05-30T20:45:48.861Z,99.90
2019-05-30T20:48:17.034Z,99.90
2019-05-30T20:50:45.608Z,99.90
2019-05-30T20:53:14.279Z,99.90
2019-05-30T20:55:43.028Z,99.90
2019-05-30T20:58:11.636Z,99.90
2019-05-30T21:00:41.827Z,99.90
2019-05-30T21:03:10.811Z,99.90
2019-05-30T21:05:42.020Z,99.90
2019-05-30T21:08:10.793Z,99.90
2019-05-30T21:10:41.150Z,99.90
2019-05-30T21:13:10.034Z,99.90
2019-05-30T21:15:39.660Z,99.90
2019-05-30T21:18:08.479Z,99.90
2019-05-30T21:20:37.811Z,99.90
2019-05-30T21:23:06.523Z,99.90
2019-05-30T21:25:35.924Z,99.90
2019-05-30T21:28:05.543Z,99.90
2019-05-30T21:30:34.176Z,99.90
2019-05-30T21:33:02.939Z,99.90
2019-05-30T21:35:31.508Z,99.90
2019-05-30T21:38:00.222Z,99.90
2019-05-30T21:40:28.751Z,99.90
2019-05-30T21:43:05.978Z,99.90
2019-05-30T21:45:27.698Z,99.90
2019-05-30T21:47:56.295Z,99.90
2019-05-30T21:50:24.866Z,99.90
2019-05-30T21:52:53.530Z,99.90
2019-05-30T21:55:22.244Z,99.90
2019-05-30T21:57:50.845Z,99.90
2019-05-30T22:00:42.366Z,99.90
2019-05-30T22:03:30.361Z,99.90
2019-05-30T22:05:58.933Z,99.90
2019-05-30T22:08:27.600Z,99.90
2019-05-30T22:10:56.171Z,99.90
2019-05-30T22:13:24.761Z,99.90
2019-05-30T22:15:53.331Z,99.90
2019-05-30T22:18:21.923Z,99.90
2019-05-30T22:20:50.495Z,99.90
2019-05-30T22:23:19.605Z,99.90
2019-05-30T22:25:48.248Z,99.90
2019-05-30T22:28:16.936Z,99.90
2019-05-30T22:30:46.352Z,99.90
2019-05-30T22:33:15.012Z,99.90
2019-05-30T22:35:44.517Z,99.90
2019-05-30T22:38:13.392Z,99.90
2019-05-30T22:40:42.049Z,99.90
2019-05-30T22:43:24.483Z,99.90
2019-05-30T22:45:40.950Z,99.90
2019-05-30T22:48:09.531Z,99.90
2019-05-30T22:50:38.116Z,99.90
2019-05-30T22:53:06.718Z,99.90
2019-05-30T22:55:35.291Z,99.90
2019-05-30T22:58:03.895Z,99.90
2019-05-30T23:00:32.608Z,99.90
2019-05-30T23:03:01.204Z,99.90
2019-05-30T23:05:29.846Z,99.90
2019-05-30T23:07:58.704Z,99.90
2019-05-30T23:10:27.285Z,99.90
2019-05-30T23:12:56.104Z,99.90
2019-05-30T23:15:24.631Z,99.90
2019-05-30T23:17:53.196Z,99.90
2019-05-30T23:20:21.857Z,99.90
2019-05-30T23:22:50.947Z,99.90
2019-05-30T23:25:19.748Z,99.90
2019-05-30T23:27:49.443Z,99.90
2019-05-30T23:30:18.415Z,99.90
2019-05-30T23:32:48.160Z,99.90
2019-05-30T23:35:16.904Z,99.90
2019-05-30T23:37:45.563Z,99.90
2019-05-30T23:40:14.717Z,99.90
2019-05-30T23:43:09.536Z,99.90
2019-05-30T23:45:57.597Z,99.90
2019-05-30T23:51:25.486Z,99.90
